sensor_id;sensor_type;location;lat;lon;timestamp;P1;P4;P2;P0;N10;N4;N25;N1;N05;TS
62702;SPS30;66022;50.448;18.122;2023-03-24T00:02:08;13.07;;11.99;;;;;;;
62702;SPS30;66022;50.448;18.122;2023-03-24T00:06:12;10.53;;10.53;;;;;;;
62702;SPS30;66022;50.448;18.122;2023-03-24T00:10:17;10.53;;10.53;;;;;;;
62702;SPS30;66022;50.448;18.122;2023-03-24T00:14:20;10.53;;10.53;;;;;;;
62702;SPS30;66022;50.448;18.122;2023-03-24T00:18:24;11.01;;10.50;;;;;;;
62702;SPS30;66022;50.448;18.122;2023-03-24T00:22:30;11.01;;10.50;;;;;;;
62702;SPS30;66022;50.448;18.122;2023-03-24T00:26:35;13.06;;12.57;;;;;;;
62702;SPS30;66022;50.448;18.122;2023-03-24T00:30:51;13.06;;12.57;;;;;;;
62702;SPS30;66022;50.448;18.122;2023-03-24T00:34:51;10.12;;10.12;;;;;;;
62702;SPS30;66022;50.448;18.122;2023-03-24T00:38:52;10.12;;10.12;;;;;;;
62702;SPS30;66022;50.448;18.122;2023-03-24T00:42:56;10.12;;10.12;;;;;;;
62702;SPS30;66022;50.448;18.122;2023-03-24T00:47:00;14.16;;13.65;;;;;;;
62702;SPS30;66022;50.448;18.122;2023-03-24T00:51:04;14.16;;13.65;;;;;;;
62702;SPS30;66022;50.448;18.122;2023-03-24T00:55:08;8.24;;8.24;;;;;;;
62702;SPS30;66022;50.448;18.122;2023-03-24T00:59:12;8.24;;8.24;;;;;;;
62702;SPS30;66022;50.448;18.122;2023-03-24T01:03:16;8.24;;8.24;;;;;;;
62702;SPS30;66022;50.448;18.122;2023-03-24T01:07:20;11.55;;10.96;;;;;;;
62702;SPS30;66022;50.448;18.122;2023-03-24T01:11:26;11.55;;10.96;;;;;;;
62702;SPS30;66022;50.448;18.122;2023-03-24T01:15:30;10.51;;10.35;;;;;;;
62702;SPS30;66022;50.448;18.122;2023-03-24T01:19:32;10.51;;10.35;;;;;;;
62702;SPS30;66022;50.448;18.122;2023-03-24T01:23:36;10.51;;10.35;;;;;;;
62702;SPS30;66022;50.448;18.122;2023-03-24T01:27:40;10.40;;10.20;;;;;;;
62702;SPS30;66022;50.448;18.122;2023-03-24T01:31:44;10.40;;10.20;;;;;;;
62702;SPS30;66022;50.448;18.122;2023-03-24T01:35:48;13.36;;12.87;;;;;;;
62702;SPS30;66022;50.448;18.122;2023-03-24T01:39:52;13.36;;12.87;;;;;;;
62702;SPS30;66022;50.448;18.122;2023-03-24T01:43:56;13.36;;12.87;;;;;;;
62702;SPS30;66022;50.448;18.122;2023-03-24T01:48:00;12.24;;12.24;;;;;;;
62702;SPS30;66022;50.448;18.122;2023-03-24T01:52:05;12.24;;12.24;;;;;;;
62702;SPS30;66022;50.448;18.122;2023-03-24T01:56:08;12.30;;12.29;;;;;;;
62702;SPS30;66022;50.448;18.122;2023-03-24T02:00:13;12.30;;12.29;;;;;;;
62702;SPS30;66022;50.448;18.122;2023-03-24T02:04:16;12.30;;12.29;;;;;;;
62702;SPS30;66022;50.448;18.122;2023-03-24T02:12:24;11.04;;10.35;;;;;;;
62702;SPS30;66022;50.448;18.122;2023-03-24T02:57:09;13.78;;13.78;;;;;;;
62702;SPS30;66022;50.448;18.122;2023-03-24T03:01:13;13.78;;13.78;;;;;;;
62702;SPS30;66022;50.448;18.122;2023-03-24T03:05:24;14.21;;14.21;;;;;;;
62702;SPS30;66022;50.448;18.122;2023-03-24T03:09:20;14.21;;14.21;;;;;;;
62702;SPS30;66022;50.448;18.122;2023-03-24T03:13:34;14.21;;14.21;;;;;;;
62702;SPS30;66022;50.448;18.122;2023-03-24T03:17:30;14.30;;13.80;;;;;;;
62702;SPS30;66022;50.448;18.122;2023-03-24T03:21:34;14.30;;13.80;;;;;;;
62702;SPS30;66022;50.448;18.122;2023-03-24T03:25:40;14.47;;14.47;;;;;;;
62702;SPS30;66022;50.448;18.122;2023-03-24T03:29:40;14.47;;14.47;;;;;;;
62702;SPS30;66022;50.448;18.122;2023-03-24T03:41:52;16.72;;16.23;;;;;;;
62702;SPS30;66022;50.448;18.122;2023-03-24T03:45:56;18.34;;16.60;;;;;;;
62702;SPS30;66022;50.448;18.122;2023-03-24T03:50:00;18.34;;16.60;;;;;;;
62702;SPS30;66022;50.448;18.122;2023-03-24T03:54:04;18.34;;16.60;;;;;;;
62702;SPS30;66022;50.448;18.122;2023-03-24T03:58:08;14.11;;13.99;;;;;;;
62702;SPS30;66022;50.448;18.122;2023-03-24T04:10:22;16.75;;16.44;;;;;;;
62702;SPS30;66022;50.448;18.122;2023-03-24T04:15:08;16.75;;16.44;;;;;;;
62702;SPS30;66022;50.448;18.122;2023-03-24T04:18:34;16.28;;15.81;;;;;;;
62702;SPS30;66022;50.448;18.122;2023-03-24T04:30:43;16.48;;16.02;;;;;;;
62702;SPS30;66022;50.448;18.122;2023-03-24T04:34:45;17.06;;17.06;;;;;;;
62702;SPS30;66022;50.448;18.122;2023-03-24T04:38:49;17.06;;17.06;;;;;;;
62702;SPS30;66022;50.448;18.122;2023-03-24T04:42:52;17.06;;17.06;;;;;;;
62702;SPS30;66022;50.448;18.122;2023-03-24T04:46:56;14.80;;14.01;;;;;;;
62702;SPS30;66022;50.448;18.122;2023-03-24T04:51:00;14.80;;14.01;;;;;;;
62702;SPS30;66022;50.448;18.122;2023-03-24T04:59:08;16.06;;15.47;;;;;;;
62702;SPS30;66022;50.448;18.122;2023-03-24T05:03:12;16.06;;15.47;;;;;;;
62702;SPS30;66022;50.448;18.122;2023-03-24T05:07:16;16.57;;15.83;;;;;;;
62702;SPS30;66022;50.448;18.122;2023-03-24T05:11:20;16.57;;15.83;;;;;;;
62702;SPS30;66022;50.448;18.122;2023-03-24T05:15:24;16.54;;16.54;;;;;;;
62702;SPS30;66022;50.448;18.122;2023-03-24T05:19:28;16.54;;16.54;;;;;;;
62702;SPS30;66022;50.448;18.122;2023-03-24T05:23:32;16.54;;16.54;;;;;;;
62702;SPS30;66022;50.448;18.122;2023-03-24T05:27:36;20.19;;19.10;;;;;;;
62702;SPS30;66022;50.448;18.122;2023-03-24T05:31:40;20.19;;19.10;;;;;;;
62702;SPS30;66022;50.448;18.122;2023-03-24T05:35:44;20.63;;20.62;;;;;;;
62702;SPS30;66022;50.448;18.122;2023-03-24T05:39:48;20.63;;20.62;;;;;;;
62702;SPS30;66022;50.448;18.122;2023-03-24T05:43:52;20.63;;20.62;;;;;;;
62702;SPS30;66022;50.448;18.122;2023-03-24T05:47:56;22.46;;21.30;;;;;;;
62702;SPS30;66022;50.448;18.122;2023-03-24T05:52:00;22.46;;21.30;;;;;;;
62702;SPS30;66022;50.448;18.122;2023-03-24T05:56:04;20.17;;20.07;;;;;;;
62702;SPS30;66022;50.448;18.122;2023-03-24T06:00:11;20.17;;20.07;;;;;;;
62702;SPS30;66022;50.448;18.122;2023-03-24T06:04:12;20.17;;20.07;;;;;;;
62702;SPS30;66022;50.448;18.122;2023-03-24T06:08:16;20.60;;20.18;;;;;;;
62702;SPS30;66022;50.448;18.122;2023-03-24T06:12:20;20.60;;20.18;;;;;;;
62702;SPS30;66022;50.448;18.122;2023-03-24T06:16:28;22.79;;21.40;;;;;;;
62702;SPS30;66022;50.448;18.122;2023-03-24T06:20:33;22.79;;21.40;;;;;;;
62702;SPS30;66022;50.448;18.122;2023-03-24T06:24:36;22.79;;21.40;;;;;;;
62702;SPS30;66022;50.448;18.122;2023-03-24T06:28:43;14.47;;14.47;;;;;;;
62702;SPS30;66022;50.448;18.122;2023-03-24T06:32:44;14.47;;14.47;;;;;;;
62702;SPS30;66022;50.448;18.122;2023-03-24T06:36:48;11.50;;11.12;;;;;;;
62702;SPS30;66022;50.448;18.122;2023-03-24T06:40:51;11.50;;11.12;;;;;;;
62702;SPS30;66022;50.448;18.122;2023-03-24T06:44:55;7.91;;7.91;;;;;;;
62702;SPS30;66022;50.448;18.122;2023-03-24T06:48:59;7.91;;7.91;;;;;;;
62702;SPS30;66022;50.448;18.122;2023-03-24T06:53:03;7.91;;7.91;;;;;;;
62702;SPS30;66022;50.448;18.122;2023-03-24T06:57:07;11.91;;11.70;;;;;;;
62702;SPS30;66022;50.448;18.122;2023-03-24T07:01:12;11.91;;11.70;;;;;;;
62702;SPS30;66022;50.448;18.122;2023-03-24T07:05:16;10.73;;10.53;;;;;;;
62702;SPS30;66022;50.448;18.122;2023-03-24T07:09:19;10.73;;10.53;;;;;;;
62702;SPS30;66022;50.448;18.122;2023-03-24T07:13:24;10.73;;10.53;;;;;;;
62702;SPS30;66022;50.448;18.122;2023-03-24T07:17:27;8.36;;8.36;;;;;;;
62702;SPS30;66022;50.448;18.122;2023-03-24T07:21:31;8.36;;8.36;;;;;;;
62702;SPS30;66022;50.448;18.122;2023-03-24T07:25:36;7.84;;7.84;;;;;;;
62702;SPS30;66022;50.448;18.122;2023-03-24T07:29:39;7.84;;7.84;;;;;;;
62702;SPS30;66022;50.448;18.122;2023-03-24T07:33:43;7.84;;7.84;;;;;;;
62702;SPS30;66022;50.448;18.122;2023-03-24T07:37:47;7.35;;7.35;;;;;;;
62702;SPS30;66022;50.448;18.122;2023-03-24T07:41:51;7.35;;7.35;;;;;;;
62702;SPS30;66022;50.448;18.122;2023-03-24T07:45:55;8.79;;8.79;;;;;;;
62702;SPS30;66022;50.448;18.122;2023-03-24T07:49:59;8.79;;8.79;;;;;;;
62702;SPS30;66022;50.448;18.122;2023-03-24T07:54:03;8.79;;8.79;;;;;;;
62702;SPS30;66022;50.448;18.122;2023-03-24T07:58:07;8.73;;8.14;;;;;;;
62702;SPS30;66022;50.448;18.122;2023-03-24T08:02:15;8.73;;8.14;;;;;;;
62702;SPS30;66022;50.448;18.122;2023-03-24T08:06:15;6.47;;6.47;;;;;;;
62702;SPS30;66022;50.448;18.122;2023-03-24T08:14:23;6.47;;6.47;;;;;;;
62702;SPS30;66022;50.448;18.122;2023-03-24T08:18:27;5.40;;5.38;;;;;;;
62702;SPS30;66022;50.448;18.122;2023-03-24T08:22:31;5.40;;5.38;;;;;;;
62702;SPS30;66022;50.448;18.122;2023-03-24T08:26:35;5.05;;5.05;;;;;;;
62702;SPS30;66022;50.448;18.122;2023-03-24T08:30:39;5.05;;5.05;;;;;;;
62702;SPS30;66022;50.448;18.122;2023-03-24T08:34:43;5.47;;5.14;;;;;;;
62702;SPS30;66022;50.448;18.122;2023-03-24T08:38:47;5.47;;5.14;;;;;;;
62702;SPS30;66022;50.448;18.122;2023-03-24T08:42:53;5.47;;5.14;;;;;;;
62702;SPS30;66022;50.448;18.122;2023-03-24T08:46:55;4.20;;4.20;;;;;;;
62702;SPS30;66022;50.448;18.122;2023-03-24T08:50:59;4.20;;4.20;;;;;;;
62702;SPS30;66022;50.448;18.122;2023-03-24T08:55:05;6.02;;6.02;;;;;;;
62702;SPS30;66022;50.448;18.122;2023-03-24T08:59:07;6.02;;6.02;;;;;;;
62702;SPS30;66022;50.448;18.122;2023-03-24T09:03:13;6.02;;6.02;;;;;;;
62702;SPS30;66022;50.448;18.122;2023-03-24T09:07:15;4.54;;4.54;;;;;;;
62702;SPS30;66022;50.448;18.122;2023-03-24T09:11:21;4.54;;4.54;;;;;;;
62702;SPS30;66022;50.448;18.122;2023-03-24T09:15:23;5.49;;5.21;;;;;;;
62702;SPS30;66022;50.448;18.122;2023-03-24T09:19:27;5.49;;5.21;;;;;;;
62702;SPS30;66022;50.448;18.122;2023-03-24T09:23:31;5.49;;5.21;;;;;;;
62702;SPS30;66022;50.448;18.122;2023-03-24T09:27:35;6.62;;6.62;;;;;;;
62702;SPS30;66022;50.448;18.122;2023-03-24T09:31:39;6.62;;6.62;;;;;;;
62702;SPS30;66022;50.448;18.122;2023-03-24T09:35:43;9.68;;9.68;;;;;;;
62702;SPS30;66022;50.448;18.122;2023-03-24T09:39:47;9.68;;9.68;;;;;;;
62702;SPS30;66022;50.448;18.122;2023-03-24T09:43:56;9.68;;9.68;;;;;;;
62702;SPS30;66022;50.448;18.122;2023-03-24T09:47:57;8.16;;7.93;;;;;;;
62702;SPS30;66022;50.448;18.122;2023-03-24T09:52:02;8.16;;7.93;;;;;;;
62702;SPS30;66022;50.448;18.122;2023-03-24T09:56:08;9.85;;9.58;;;;;;;
62702;SPS30;66022;50.448;18.122;2023-03-24T10:00:14;9.85;;9.58;;;;;;;
62702;SPS30;66022;50.448;18.122;2023-03-24T10:04:15;9.85;;9.58;;;;;;;
62702;SPS30;66022;50.448;18.122;2023-03-24T10:08:16;9.22;;9.22;;;;;;;
62702;SPS30;66022;50.448;18.122;2023-03-24T10:12:23;9.22;;9.22;;;;;;;
62702;SPS30;66022;50.448;18.122;2023-03-24T10:24:35;10.14;;10.14;;;;;;;
62702;SPS30;66022;50.448;18.122;2023-03-24T10:32:40;11.44;;11.44;;;;;;;
62702;SPS30;66022;50.448;18.122;2023-03-24T10:36:43;17.05;;16.32;;;;;;;
62702;SPS30;66022;50.448;18.122;2023-03-24T10:40:48;17.05;;16.32;;;;;;;
62702;SPS30;66022;50.448;18.122;2023-03-24T10:44:51;12.75;;12.17;;;;;;;
62702;SPS30;66022;50.448;18.122;2023-03-24T10:52:59;12.75;;12.17;;;;;;;
62702;SPS30;66022;50.448;18.122;2023-03-24T10:57:03;13.00;;12.22;;;;;;;
62702;SPS30;66022;50.448;18.122;2023-03-24T11:05:15;11.85;;11.85;;;;;;;
62702;SPS30;66022;50.448;18.122;2023-03-24T11:09:19;11.85;;11.85;;;;;;;
62702;SPS30;66022;50.448;18.122;2023-03-24T11:13:26;11.85;;11.85;;;;;;;
62702;SPS30;66022;50.448;18.122;2023-03-24T11:17:23;11.45;;11.45;;;;;;;
62702;SPS30;66022;50.448;18.122;2023-03-24T11:21:28;11.45;;11.45;;;;;;;
62702;SPS30;66022;50.448;18.122;2023-03-24T11:29:37;14.92;;14.30;;;;;;;
62702;SPS30;66022;50.448;18.122;2023-03-24T11:33:48;14.92;;14.30;;;;;;;
62702;SPS30;66022;50.448;18.122;2023-03-24T11:37:43;17.12;;16.73;;;;;;;
62702;SPS30;66022;50.448;18.122;2023-03-24T11:41:51;17.12;;16.73;;;;;;;
62702;SPS30;66022;50.448;18.122;2023-03-24T11:45:54;19.03;;18.42;;;;;;;
62702;SPS30;66022;50.448;18.122;2023-03-24T11:53:59;19.03;;18.42;;;;;;;
62702;SPS30;66022;50.448;18.122;2023-03-24T12:02:12;20.95;;19.56;;;;;;;
62702;SPS30;66022;50.448;18.122;2023-03-24T12:26:32;20.85;;20.85;;;;;;;
62702;SPS30;66022;50.448;18.122;2023-03-24T12:30:37;20.85;;20.85;;;;;;;
62702;SPS30;66022;50.448;18.122;2023-03-24T12:34:47;23.11;;22.64;;;;;;;
62702;SPS30;66022;50.448;18.122;2023-03-24T12:42:48;23.11;;22.64;;;;;;;
62702;SPS30;66022;50.448;18.122;2023-03-24T13:03:15;23.32;;23.14;;;;;;;
62702;SPS30;66022;50.448;18.122;2023-03-24T13:07:14;22.44;;22.06;;;;;;;
62702;SPS30;66022;50.448;18.122;2023-03-24T13:11:16;22.44;;22.06;;;;;;;
62702;SPS30;66022;50.448;18.122;2023-03-24T13:19:24;24.00;;23.59;;;;;;;
62702;SPS30;66022;50.448;18.122;2023-03-24T13:27:32;28.74;;26.97;;;;;;;
62702;SPS30;66022;50.448;18.122;2023-03-24T13:35:44;24.94;;24.21;;;;;;;
62702;SPS30;66022;50.448;18.122;2023-03-24T13:39:44;24.94;;24.21;;;;;;;
62702;SPS30;66022;50.448;18.122;2023-03-24T13:43:51;24.94;;24.21;;;;;;;
62702;SPS30;66022;50.448;18.122;2023-03-24T13:51:56;25.13;;24.91;;;;;;;
62702;SPS30;66022;50.448;18.122;2023-03-24T13:56:00;26.12;;24.99;;;;;;;
62702;SPS30;66022;50.448;18.122;2023-03-24T14:08:13;22.52;;21.94;;;;;;;
62702;SPS30;66022;50.448;18.122;2023-03-24T14:12:16;22.52;;21.94;;;;;;;
62702;SPS30;66022;50.448;18.122;2023-03-24T14:20:25;18.91;;18.60;;;;;;;
62702;SPS30;66022;50.448;18.122;2023-03-24T14:24:28;18.91;;18.60;;;;;;;
62702;SPS30;66022;50.448;18.122;2023-03-24T14:32:40;14.43;;14.27;;;;;;;
62702;SPS30;66022;50.448;18.122;2023-03-24T14:36:41;12.85;;12.38;;;;;;;
62702;SPS30;66022;50.448;18.122;2023-03-24T14:40:44;12.85;;12.38;;;;;;;
62702;SPS30;66022;50.448;18.122;2023-03-24T14:44:51;14.70;;13.97;;;;;;;
62702;SPS30;66022;50.448;18.122;2023-03-24T14:53:00;14.70;;13.97;;;;;;;
62702;SPS30;66022;50.448;18.122;2023-03-24T14:57:00;14.87;;14.56;;;;;;;
62702;SPS30;66022;50.448;18.122;2023-03-24T15:01:04;14.87;;14.56;;;;;;;
62702;SPS30;66022;50.448;18.122;2023-03-24T15:09:13;15.64;;15.03;;;;;;;
62702;SPS30;66022;50.448;18.122;2023-03-24T15:17:21;20.30;;19.31;;;;;;;
62702;SPS30;66022;50.448;18.122;2023-03-24T15:25:28;15.91;;15.02;;;;;;;
62702;SPS30;66022;50.448;18.122;2023-03-24T15:29:32;15.91;;15.02;;;;;;;
62702;SPS30;66022;50.448;18.122;2023-03-24T15:33:39;15.91;;15.02;;;;;;;
62702;SPS30;66022;50.448;18.122;2023-03-24T15:37:40;15.04;;15.04;;;;;;;
62702;SPS30;66022;50.448;18.122;2023-03-24T15:41:44;15.04;;15.04;;;;;;;
62702;SPS30;66022;50.448;18.122;2023-03-24T15:45:52;18.05;;16.69;;;;;;;
62702;SPS30;66022;50.448;18.122;2023-03-24T15:53:56;18.05;;16.69;;;;;;;
62702;SPS30;66022;50.448;18.122;2023-03-24T15:58:01;15.96;;15.96;;;;;;;
62702;SPS30;66022;50.448;18.122;2023-03-24T16:02:06;15.96;;15.96;;;;;;;
62702;SPS30;66022;50.448;18.122;2023-03-24T16:06:12;15.19;;15.19;;;;;;;
62702;SPS30;66022;50.448;18.122;2023-03-24T16:18:21;20.10;;18.11;;;;;;;
62702;SPS30;66022;50.448;18.122;2023-03-24T16:22:24;20.10;;18.11;;;;;;;
62702;SPS30;66022;50.448;18.122;2023-03-24T16:26:29;18.68;;18.68;;;;;;;
62702;SPS30;66022;50.448;18.122;2023-03-24T16:30:34;18.68;;18.68;;;;;;;
62702;SPS30;66022;50.448;18.122;2023-03-24T16:34:36;18.68;;18.68;;;;;;;
62702;SPS30;66022;50.448;18.122;2023-03-24T16:38:40;24.12;;23.53;;;;;;;
62702;SPS30;66022;50.448;18.122;2023-03-24T16:42:44;24.12;;23.53;;;;;;;
62702;SPS30;66022;50.448;18.122;2023-03-24T16:46:49;24.22;;22.99;;;;;;;
62702;SPS30;66022;50.448;18.122;2023-03-24T16:50:52;24.22;;22.99;;;;;;;
62702;SPS30;66022;50.448;18.122;2023-03-24T16:54:56;10.74;;10.74;;;;;;;
62702;SPS30;66022;50.448;18.122;2023-03-24T16:59:00;10.74;;10.74;;;;;;;
62702;SPS30;66022;50.448;18.122;2023-03-24T17:03:05;10.74;;10.74;;;;;;;
62702;SPS30;66022;50.448;18.122;2023-03-24T17:07:08;7.30;;6.92;;;;;;;
62702;SPS30;66022;50.448;18.122;2023-03-24T17:11:12;7.30;;6.92;;;;;;;
62702;SPS30;66022;50.448;18.122;2023-03-24T17:15:18;4.87;;4.72;;;;;;;
62702;SPS30;66022;50.448;18.122;2023-03-24T17:19:20;4.87;;4.72;;;;;;;
62702;SPS30;66022;50.448;18.122;2023-03-24T17:23:24;4.87;;4.72;;;;;;;
62702;SPS30;66022;50.448;18.122;2023-03-24T17:27:28;6.56;;5.69;;;;;;;
62702;SPS30;66022;50.448;18.122;2023-03-24T17:31:32;6.56;;5.69;;;;;;;
62702;SPS30;66022;50.448;18.122;2023-03-24T17:35:36;5.23;;5.23;;;;;;;
62702;SPS30;66022;50.448;18.122;2023-03-24T17:39:40;5.23;;5.23;;;;;;;
62702;SPS30;66022;50.448;18.122;2023-03-24T17:43:44;5.23;;5.23;;;;;;;
62702;SPS30;66022;50.448;18.122;2023-03-24T17:47:48;8.72;;8.27;;;;;;;
62702;SPS30;66022;50.448;18.122;2023-03-24T17:51:52;8.72;;8.27;;;;;;;
62702;SPS30;66022;50.448;18.122;2023-03-24T17:55:57;7.26;;7.05;;;;;;;
62702;SPS30;66022;50.448;18.122;2023-03-24T18:00:00;7.26;;7.05;;;;;;;
62702;SPS30;66022;50.448;18.122;2023-03-24T18:04:04;7.26;;7.05;;;;;;;
62702;SPS30;66022;50.448;18.122;2023-03-24T18:08:13;8.41;;8.06;;;;;;;
62702;SPS30;66022;50.448;18.122;2023-03-24T18:12:13;8.41;;8.06;;;;;;;
62702;SPS30;66022;50.448;18.122;2023-03-24T18:16:24;7.69;;7.60;;;;;;;
62702;SPS30;66022;50.448;18.122;2023-03-24T18:20:22;7.69;;7.60;;;;;;;
62702;SPS30;66022;50.448;18.122;2023-03-24T18:24:24;7.69;;7.60;;;;;;;
62702;SPS30;66022;50.448;18.122;2023-03-24T18:28:28;13.33;;12.00;;;;;;;
62702;SPS30;66022;50.448;18.122;2023-03-24T18:32:32;13.33;;12.00;;;;;;;
62702;SPS30;66022;50.448;18.122;2023-03-24T18:36:36;17.94;;16.81;;;;;;;
62702;SPS30;66022;50.448;18.122;2023-03-24T18:40:40;17.94;;16.81;;;;;;;
62702;SPS30;66022;50.448;18.122;2023-03-24T18:44:44;20.42;;20.04;;;;;;;
62702;SPS30;66022;50.448;18.122;2023-03-24T18:48:48;20.42;;20.04;;;;;;;
62702;SPS30;66022;50.448;18.122;2023-03-24T18:52:52;20.42;;20.04;;;;;;;
62702;SPS30;66022;50.448;18.122;2023-03-24T18:56:56;15.25;;15.25;;;;;;;
62702;SPS30;66022;50.448;18.122;2023-03-24T19:01:04;15.25;;15.25;;;;;;;
62702;SPS30;66022;50.448;18.122;2023-03-24T19:05:04;12.30;;11.71;;;;;;;
62702;SPS30;66022;50.448;18.122;2023-03-24T19:09:08;12.30;;11.71;;;;;;;
62702;SPS30;66022;50.448;18.122;2023-03-24T19:13:13;12.30;;11.71;;;;;;;
62702;SPS30;66022;50.448;18.122;2023-03-24T19:17:16;10.32;;9.82;;;;;;;
62702;SPS30;66022;50.448;18.122;2023-03-24T19:21:20;10.32;;9.82;;;;;;;
62702;SPS30;66022;50.448;18.122;2023-03-24T19:25:24;12.50;;11.60;;;;;;;
62702;SPS30;66022;50.448;18.122;2023-03-24T19:29:28;12.50;;11.60;;;;;;;
62702;SPS30;66022;50.448;18.122;2023-03-24T19:33:32;12.50;;11.60;;;;;;;
62702;SPS30;66022;50.448;18.122;2023-03-24T19:37:36;14.37;;13.17;;;;;;;
62702;SPS30;66022;50.448;18.122;2023-03-24T19:41:40;14.37;;13.17;;;;;;;
62702;SPS30;66022;50.448;18.122;2023-03-24T19:45:48;11.70;;11.22;;;;;;;
62702;SPS30;66022;50.448;18.122;2023-03-24T19:49:49;11.70;;11.22;;;;;;;
62702;SPS30;66022;50.448;18.122;2023-03-24T19:53:52;11.70;;11.22;;;;;;;
62702;SPS30;66022;50.448;18.122;2023-03-24T19:57:56;15.19;;13.76;;;;;;;
62702;SPS30;66022;50.448;18.122;2023-03-24T20:02:00;15.19;;13.76;;;;;;;
62702;SPS30;66022;50.448;18.122;2023-03-24T20:06:04;11.67;;10.66;;;;;;;
62702;SPS30;66022;50.448;18.122;2023-03-24T20:10:08;11.67;;10.66;;;;;;;
62702;SPS30;66022;50.448;18.122;2023-03-24T20:14:12;11.67;;10.66;;;;;;;
62702;SPS30;66022;50.448;18.122;2023-03-24T20:18:16;9.05;;8.56;;;;;;;
62702;SPS30;66022;50.448;18.122;2023-03-24T20:22:20;9.05;;8.56;;;;;;;
62702;SPS30;66022;50.448;18.122;2023-03-24T20:26:24;9.37;;9.16;;;;;;;
62702;SPS30;66022;50.448;18.122;2023-03-24T20:30:28;9.37;;9.16;;;;;;;
62702;SPS30;66022;50.448;18.122;2023-03-24T20:34:32;9.37;;9.16;;;;;;;
62702;SPS30;66022;50.448;18.122;2023-03-24T20:38:36;15.06;;14.49;;;;;;;
62702;SPS30;66022;50.448;18.122;2023-03-24T20:42:40;15.06;;14.49;;;;;;;
62702;SPS30;66022;50.448;18.122;2023-03-24T20:46:47;8.99;;8.99;;;;;;;
62702;SPS30;66022;50.448;18.122;2023-03-24T20:50:48;8.99;;8.99;;;;;;;
62702;SPS30;66022;50.448;18.122;2023-03-24T20:54:52;8.56;;8.56;;;;;;;
62702;SPS30;66022;50.448;18.122;2023-03-24T20:58:56;8.56;;8.56;;;;;;;
62702;SPS30;66022;50.448;18.122;2023-03-24T21:03:01;8.56;;8.56;;;;;;;
62702;SPS30;66022;50.448;18.122;2023-03-24T21:07:04;8.63;;8.36;;;;;;;
62702;SPS30;66022;50.448;18.122;2023-03-24T21:11:08;8.63;;8.36;;;;;;;
62702;SPS30;66022;50.448;18.122;2023-03-24T21:15:12;11.03;;10.89;;;;;;;
62702;SPS30;66022;50.448;18.122;2023-03-24T21:19:16;11.03;;10.89;;;;;;;
62702;SPS30;66022;50.448;18.122;2023-03-24T21:23:20;11.03;;10.89;;;;;;;
62702;SPS30;66022;50.448;18.122;2023-03-24T21:27:24;6.51;;6.51;;;;;;;
62702;SPS30;66022;50.448;18.122;2023-03-24T21:31:28;6.51;;6.51;;;;;;;
62702;SPS30;66022;50.448;18.122;2023-03-24T21:35:32;6.58;;6.19;;;;;;;
62702;SPS30;66022;50.448;18.122;2023-03-24T21:39:36;6.58;;6.19;;;;;;;
62702;SPS30;66022;50.448;18.122;2023-03-24T21:43:40;6.58;;6.19;;;;;;;
62702;SPS30;66022;50.448;18.122;2023-03-24T21:47:45;8.92;;8.92;;;;;;;
62702;SPS30;66022;50.448;18.122;2023-03-24T21:51:48;8.92;;8.92;;;;;;;
62702;SPS30;66022;50.448;18.122;2023-03-24T21:55:56;15.31;;14.90;;;;;;;
62702;SPS30;66022;50.448;18.122;2023-03-24T21:59:56;15.31;;14.90;;;;;;;
62702;SPS30;66022;50.448;18.122;2023-03-24T22:04:00;15.31;;14.90;;;;;;;
62702;SPS30;66022;50.448;18.122;2023-03-24T22:08:04;13.33;;11.46;;;;;;;
62702;SPS30;66022;50.448;18.122;2023-03-24T22:12:08;13.33;;11.46;;;;;;;
62702;SPS30;66022;50.448;18.122;2023-03-24T22:16:12;12.56;;12.19;;;;;;;
62702;SPS30;66022;50.448;18.122;2023-03-24T22:20:16;12.56;;12.19;;;;;;;
62702;SPS30;66022;50.448;18.122;2023-03-24T22:24:20;12.56;;12.19;;;;;;;
62702;SPS30;66022;50.448;18.122;2023-03-24T22:28:24;8.14;;7.51;;;;;;;
62702;SPS30;66022;50.448;18.122;2023-03-24T22:32:28;8.14;;7.51;;;;;;;
62702;SPS30;66022;50.448;18.122;2023-03-24T22:36:32;7.97;;7.57;;;;;;;
62702;SPS30;66022;50.448;18.122;2023-03-24T22:40:36;7.97;;7.57;;;;;;;
62702;SPS30;66022;50.448;18.122;2023-03-24T22:44:40;58.46;;47.11;;;;;;;
62702;SPS30;66022;50.448;18.122;2023-03-24T22:48:44;58.46;;47.11;;;;;;;
62702;SPS30;66022;50.448;18.122;2023-03-24T22:52:48;58.46;;47.11;;;;;;;
62702;SPS30;66022;50.448;18.122;2023-03-24T22:56:52;22.70;;21.03;;;;;;;
62702;SPS30;66022;50.448;18.122;2023-03-24T23:00:56;22.70;;21.03;;;;;;;
62702;SPS30;66022;50.448;18.122;2023-03-24T23:05:00;29.00;;26.84;;;;;;;
62702;SPS30;66022;50.448;18.122;2023-03-24T23:09:04;29.00;;26.84;;;;;;;
62702;SPS30;66022;50.448;18.122;2023-03-24T23:13:08;29.00;;26.84;;;;;;;
62702;SPS30;66022;50.448;18.122;2023-03-24T23:17:12;21.23;;20.82;;;;;;;
62702;SPS30;66022;50.448;18.122;2023-03-24T23:21:16;21.23;;20.82;;;;;;;
62702;SPS30;66022;50.448;18.122;2023-03-24T23:25:20;17.02;;16.76;;;;;;;
62702;SPS30;66022;50.448;18.122;2023-03-24T23:29:24;17.02;;16.76;;;;;;;
62702;SPS30;66022;50.448;18.122;2023-03-24T23:33:28;17.02;;16.76;;;;;;;
62702;SPS30;66022;50.448;18.122;2023-03-24T23:37:32;11.11;;11.11;;;;;;;
62702;SPS30;66022;50.448;18.122;2023-03-24T23:41:36;11.11;;11.11;;;;;;;
62702;SPS30;66022;50.448;18.122;2023-03-24T23:45:43;8.98;;8.64;;;;;;;
62702;SPS30;66022;50.448;18.122;2023-03-24T23:49:45;8.98;;8.64;;;;;;;
62702;SPS30;66022;50.448;18.122;2023-03-24T23:53:49;8.98;;8.64;;;;;;;
62702;SPS30;66022;50.448;18.122;2023-03-24T23:57:53;8.37;;7.62;;;;;;;
